Time;durP1;ratioP1;P1;durP2;ratioP2;P2;SDS_P1;SDS_P2;PMS_P1;PMS_P2;Temp;Humidity;BMP_temperature;BMP_pressure;BME280_temperature;BME280_humidity;BME280_pressure;Samples;Min_cycle;Max_cycle;Signal;HPM_P1;HPM_P2
2022/11/17 00:00:41;;;;;;;2.15;1.95;;;;;;;3.33;74.70;98408.11;1803209;79;21949;-40
2022/11/17 00:03:14;;;;;;;2.10;1.90;;;;;;;3.29;74.25;98411.24;1802303;79;21018;-40
2022/11/17 00:05:43;;;;;;;3.02;2.10;;;;;;;3.26;74.17;98411.89;1800427;79;20886;-40
2022/11/17 00:08:09;;;;;;;2.75;2.40;;;;;;;3.27;74.11;98409.45;1800721;79;20918;-40
2022/11/17 00:10:36;;;;;;;2.90;2.52;;;;;;;3.25;73.77;98409.77;1800592;78;21029;-40
2022/11/17 00:15:48;;;;;;;3.70;3.05;;;;;;;3.10;73.90;98408.33;1799981;79;20989;-40
2022/11/17 00:21:20;;;;;;;4.65;2.60;;;;;;;3.01;74.52;98403.05;1800046;79;20948;-40
2022/11/17 00:23:48;;;;;;;3.90;2.87;;;;;;;3.03;74.62;98406.97;1799782;78;21093;-39
2022/11/17 00:26:21;;;;;;;2.77;2.22;;;;;;;3.03;74.83;98406.97;1799996;79;21133;-40
2022/11/17 00:28:56;;;;;;;3.33;2.65;;;;;;;3.03;74.82;98402.95;1799879;78;20985;-40
2022/11/17 00:34:25;;;;;;;2.33;2.12;;;;;;;3.00;74.51;98396.16;1800076;78;21507;-39
2022/11/17 00:36:54;;;;;;;3.00;2.47;;;;;;;3.04;74.47;98393.81;1800172;78;21593;-39
2022/11/17 00:39:21;;;;;;;3.50;3.20;;;;;;;3.04;74.38;98393.81;1800027;79;21904;-40
2022/11/17 00:41:48;;;;;;;3.20;2.90;;;;;;;3.04;74.52;98398.38;1799917;78;20918;-40
2022/11/17 00:44:15;;;;;;;4.30;3.12;;;;;;;3.02;74.24;98395.25;1799944;79;21048;-40
2022/11/17 00:46:41;;;;;;;3.75;3.17;;;;;;;3.00;74.27;98394.23;1799930;79;20958;-39
2022/11/17 00:49:10;;;;;;;3.22;2.90;;;;;;;3.01;74.06;98399.81;1799919;78;20973;-40
2022/11/17 00:51:38;;;;;;;3.83;3.42;;;;;;;3.06;73.97;98397.48;1800092;79;21216;-40
2022/11/17 00:54:06;;;;;;;6.22;4.28;;;;;;;3.08;73.92;98395.27;1799856;79;21494;-40
2022/11/17 00:56:33;;;;;;;4.30;3.90;;;;;;;3.05;73.86;98400.70;1799885;78;20965;-39
2022/11/17 00:59:00;;;;;;;4.65;4.12;;;;;;;3.01;73.73;98403.05;1800005;78;21045;-40
2022/11/17 01:01:28;;;;;;;5.40;4.37;;;;;;;2.96;73.83;98400.58;1800036;78;21037;-40
2022/11/17 01:04:03;;;;;;;5.55;4.03;;;;;;;2.93;73.97;98401.26;1799698;79;23132;-40
2022/11/17 01:06:42;;;;;;;4.85;4.35;;;;;;;2.91;73.83;98402.92;1799816;79;21004;-39
2022/11/17 01:09:14;;;;;;;5.50;4.78;;;;;;;2.93;73.64;98400.70;1799933;79;21005;-40
2022/11/17 01:11:41;;;;;;;5.45;4.95;;;;;;;2.64;73.56;98359.38;1799855;79;20969;-39
2022/11/17 01:14:12;;;;;;;6.62;5.35;;;;;;;2.89;73.63;98405.16;1799998;79;20996;-40
2022/11/17 01:16:39;;;;;;;6.65;5.70;;;;;;;2.87;73.72;98407.37;1800136;79;21069;-40
2022/11/17 01:19:06;;;;;;;5.67;5.05;;;;;;;2.83;73.73;98409.16;1800010;78;20973;-40
2022/11/17 01:21:32;;;;;;;5.53;4.87;;;;;;;2.86;73.79;98409.04;1799867;79;20909;-40
2022/11/17 01:24:00;;;;;;;5.55;5.00;;;;;;;2.94;73.91;98408.19;1799917;79;20981;-40
2022/11/17 01:26:30;;;;;;;6.28;5.10;;;;;;;3.00;73.60;98407.62;1800143;79;21032;-39
2022/11/17 01:28:58;;;;;;;6.00;4.65;;;;;;;2.95;73.56;98401.72;1799794;79;21859;-40
2022/11/17 01:31:28;;;;;;;6.78;4.83;;;;;;;2.94;73.77;98407.63;1800173;79;20950;-40
2022/11/17 01:33:55;;;;;;;;;;;;;;;2.93;73.63;98406.06;1802501;78;21539;-40
2022/11/17 01:36:26;;;;;;;5.55;4.83;;;;;;;2.89;73.36;98406.50;1799866;78;20115;-40
2022/11/17 01:38:52;;;;;;;6.62;4.78;;;;;;;2.80;73.58;98399.68;1799410;79;21527;-39
2022/11/17 01:41:25;;;;;;;5.67;4.53;;;;;;;2.81;73.72;98393.98;1800140;78;21211;-40
2022/11/17 01:43:57;;;;;;;5.33;4.50;;;;;;;2.81;73.82;98396.65;1800051;79;21048;-40
2022/11/17 01:46:37;;;;;;;5.95;4.80;;;;;;;2.82;73.76;98398.22;1799897;78;20957;-40
2022/11/17 01:49:17;;;;;;;5.60;5.00;;;;;;;2.81;74.02;98395.31;1799835;79;21000;-40
2022/11/17 01:51:48;;;;;;;5.40;4.55;;;;;;;2.81;73.72;98396.65;1799949;79;21279;-40
2022/11/17 01:54:17;;;;;;;5.58;4.65;;;;;;;2.76;73.62;98395.52;1800357;79;21021;-40
2022/11/17 01:56:46;;;;;;;6.12;5.03;;;;;;;2.80;73.57;98401.02;1799922;78;20938;-40
2022/11/17 01:59:23;;;;;;;5.97;4.85;;;;;;;2.79;73.39;98398.89;1799965;78;21015;-40
2022/11/17 02:01:54;;;;;;;8.38;5.72;;;;;;;2.79;73.58;98402.91;1799756;79;21343;-39
2022/11/17 02:04:33;;;;;;;5.67;5.10;;;;;;;2.77;73.64;98395.75;1799923;78;20950;-40
2022/11/17 02:07:06;;;;;;;5.35;4.62;;;;;;;2.74;73.38;98392.41;1799907;79;21487;-40
2022/11/17 02:09:34;;;;;;;5.10;4.58;;;;;;;2.75;73.37;98399.89;1800132;79;20981;-39
2022/11/17 02:12:01;;;;;;;5.33;4.78;;;;;;;2.78;73.24;98401.34;1799844;79;21025;-40
2022/11/17 02:14:29;;;;;;;6.40;5.67;;;;;;;2.79;73.40;98406.92;1799910;78;20961;-39
2022/11/17 02:16:56;;;;;;;6.65;5.95;;;;;;;2.78;73.47;98402.67;1799728;79;21013;-40
2022/11/17 02:19:23;;;;;;;7.00;6.05;;;;;;;2.76;72.70;98402.80;1799792;79;23138;-40
2022/11/17 02:22:35;;;;;;;7.22;6.25;;;;;;;2.68;72.48;98393.73;1799676;79;20988;-40
2022/11/17 02:25:37;;;;;;;7.55;6.35;;;;;;;2.59;72.51;98397.05;1799826;79;20953;-40
2022/11/17 02:28:27;;;;;;;8.88;6.50;;;;;;;2.49;72.61;98392.89;1799139;79;20941;-39
2022/11/17 02:31:28;;;;;;;9.25;7.45;;;;;;;2.45;72.74;98391.21;1799787;78;21045;-39
2022/11/17 02:34:24;;;;;;;8.38;7.53;;;;;;;2.40;72.76;98402.11;1799893;79;21798;-39
2022/11/17 02:37:08;;;;;;;8.55;7.53;;;;;;;2.34;72.95;98402.08;1799920;79;20958;-40
2022/11/17 02:39:41;;;;;;;8.45;7.20;;;;;;;2.28;73.34;98405.50;1795888;79;21502;-39
2022/11/17 02:45:21;;;;;;;9.95;7.47;;;;;;;2.40;73.29;98397.55;1799966;78;21016;-39
2022/11/17 02:47:49;;;;;;;8.75;7.33;;;;;;;2.37;73.41;98403.53;1799881;78;21216;-39
2022/11/17 02:50:17;;;;;;;9.48;8.00;;;;;;;2.36;73.60;98410.02;1770314;79;21041;-40
2022/11/17 02:52:44;;;;;;;8.53;7.55;;;;;;;2.37;73.82;98412.14;1799763;79;20957;-40
2022/11/17 02:55:11;;;;;;;8.90;7.15;;;;;;;2.43;74.00;98410.81;1799915;78;21025;-39
2022/11/17 02:57:40;;;;;;;8.43;6.50;;;;;;;2.48;73.97;98403.92;1769766;79;21072;-39
2022/11/17 03:00:13;;;;;;;9.28;6.42;;;;;;;2.56;73.47;98405.75;1800182;79;21077;-40
2022/11/17 03:03:04;;;;;;;7.78;6.97;;;;;;;2.58;73.17;98414.21;1799798;78;21009;-40
2022/11/17 03:06:11;;;;;;;7.95;7.15;;;;;;;2.59;73.32;98413.11;1806696;79;20949;-40
2022/11/17 03:09:04;;;;;;;7.80;7.00;;;;;;;2.59;73.07;98417.12;1808425;79;20926;-40
2022/11/17 03:11:41;;;;;;;8.78;7.12;;;;;;;2.50;73.02;98417.20;1807149;79;21036;-39
2022/11/17 03:14:13;;;;;;;7.65;6.83;;;;;;;2.52;72.57;98418.19;1804077;79;22048;-40
2022/11/17 03:17:01;;;;;;;7.90;6.72;;;;;;;2.54;72.36;98412.75;1808471;78;20938;-39
2022/11/17 03:19:39;;;;;;;8.98;7.17;;;;;;;2.16;72.07;98348.77;1808353;78;20980;-39
2022/11/17 03:22:26;;;;;;;8.28;7.20;;;;;;;2.47;72.14;98405.80;1808205;79;21033;-39
2022/11/17 03:24:56;;;;;;;8.48;7.60;;;;;;;2.41;72.25;98401.01;1789259;79;21025;-40
2022/11/17 03:27:27;;;;;;;9.53;7.70;;;;;;;2.37;72.52;98406.21;1808580;78;21790;-40
2022/11/17 03:29:57;;;;;;;7.78;6.97;;;;;;;2.36;72.43;98402.55;1808567;79;20969;-39
2022/11/17 03:32:24;;;;;;;8.20;7.33;;;;;;;2.42;72.46;98399.91;1808250;78;22124;-40
2022/11/17 03:34:55;;;;;;;9.45;8.10;;;;;;;2.45;72.27;98396.56;1808287;78;21072;-39
2022/11/17 03:37:22;;;;;;;9.80;8.33;;;;;;;2.43;72.19;98394.76;1808110;79;21408;-39
2022/11/17 03:39:52;;;;;;;9.50;7.97;;;;;;;2.39;72.10;98392.52;1808276;79;21077;-39
2022/11/17 03:42:26;;;;;;;11.30;9.03;;;;;;;2.35;72.25;98394.29;1808484;79;21546;-40
2022/11/17 03:44:57;;;;;;;9.95;8.40;;;;;;;2.30;72.13;98394.49;1808170;79;20989;-40
2022/11/17 03:47:25;;;;;;;10.13;8.55;;;;;;;2.28;72.18;98386.00;1801896;78;20965;-40
2022/11/17 03:50:09;;;;;;;9.68;8.43;;;;;;;2.27;71.81;98387.14;1808204;79;20985;-40
2022/11/17 03:52:36;;;;;;;10.95;8.98;;;;;;;2.22;72.07;98392.69;1808445;78;21271;-40
2022/11/17 03:55:05;;;;;;;10.45;8.95;;;;;;;2.16;72.07;98390.76;1808430;79;21502;-39
2022/11/17 03:57:55;;;;;;;11.85;9.13;;;;;;;2.12;72.21;98381.28;1808691;79;20996;-39
2022/11/17 04:00:22;;;;;;;10.20;8.50;;;;;;;2.06;72.30;98381.80;1808577;79;20986;-39
2022/11/17 04:02:55;;;;;;;10.82;8.90;;;;;;;1.98;72.25;98374.09;1808564;78;20978;-39
2022/11/17 04:05:22;;;;;;;10.28;8.53;;;;;;;1.99;72.46;98380.97;1798712;79;22049;-40
2022/11/17 04:07:49;;;;;;;10.40;8.63;;;;;;;2.01;72.41;98382.78;1791576;80;21555;-40
2022/11/17 04:10:24;;;;;;;11.57;9.50;;;;;;;1.99;72.58;98379.64;1791568;80;21492;-39
2022/11/17 04:15:55;;;;;;;10.95;8.78;;;;;;;1.97;72.82;98375.19;1791724;79;20942;-40
2022/11/17 04:18:23;;;;;;;10.48;8.90;;;;;;;1.97;72.72;98375.19;1791571;79;21574;-39
2022/11/17 04:20:52;;;;;;;11.12;9.33;;;;;;;2.00;72.50;98375.86;1791400;80;21483;-39
2022/11/17 04:23:18;;;;;;;10.72;9.20;;;;;;;2.04;72.54;98374.65;1791756;80;21550;-40
2022/11/17 04:28:38;;;;;;;12.13;9.65;;;;;;;2.03;72.42;98373.11;1792004;80;20915;-39
2022/11/17 04:31:27;;;;;;;13.48;10.43;;;;;;;1.96;72.55;98377.63;1791763;80;21378;-39
2022/11/17 04:33:59;;;;;;;12.63;9.40;;;;;;;1.96;72.84;98374.95;1791872;80;20923;-39
2022/11/17 04:36:34;;;;;;;12.70;9.28;;;;;;;2.05;72.70;98371.66;1791701;79;21475;-40
2022/11/17 04:39:02;;;;;;;12.98;9.83;;;;;;;2.11;72.05;98366.34;1791439;80;21583;-39
2022/11/17 04:44:16;;;;;;;13.40;10.68;;;;;;;1.99;72.21;98379.64;1791620;79;21150;-39
2022/11/17 04:46:44;;;;;;;8.95;7.25;;;;;;;1.96;72.43;98386.98;1791721;80;20894;-39
2022/11/17 04:49:12;;;;;;;13.22;9.90;;;;;;;1.95;72.33;98393.43;1791473;80;21037;-40
2022/11/17 04:51:40;;;;;;;12.95;9.88;;;;;;;1.98;72.50;98397.36;1791565;79;20914;-40
2022/11/17 04:54:08;;;;;;;12.93;9.93;;;;;;;2.01;72.20;98400.16;1791656;80;21091;-40
2022/11/17 04:56:36;;;;;;;;;;;;;;;1.99;72.28;98398.35;1794338;79;20993;-39
2022/11/17 04:59:03;;;;;;;13.80;10.20;;;;;;;1.97;72.30;98392.56;1791518;80;20114;-39
2022/11/17 05:01:30;;;;;;;14.25;11.45;;;;;;;1.87;72.49;98392.95;1791681;80;20961;-39
2022/11/17 05:04:03;;;;;;;13.65;10.95;;;;;;;1.89;72.45;98394.73;1791391;79;20945;-39
2022/11/17 05:06:39;;;;;;;11.85;9.73;;;;;;;1.95;72.30;98400.11;1807235;79;20996;-39
2022/11/17 05:09:10;;;;;;;13.35;10.48;;;;;;;2.01;71.96;98403.38;1806981;79;22032;-39
2022/11/17 05:14:23;;;;;;;12.65;10.82;;;;;;;2.07;71.98;98420.25;1784341;80;21031;-39
2022/11/17 05:17:05;;;;;;;14.45;11.22;;;;;;;2.05;71.59;98421.11;1769166;78;21022;-39
2022/11/17 05:19:37;;;;;;;15.75;11.57;;;;;;;1.99;70.87;98414.94;1742681;81;21051;-40
2022/11/17 05:24:51;;;;;;;15.40;11.80;;;;;;;1.90;71.08;98432.38;1684801;85;21084;-39
2022/11/17 05:27:19;;;;;;;15.30;11.45;;;;;;;1.94;71.15;98440.52;1737780;81;21535;-39
2022/11/17 05:29:45;;;;;;;17.12;13.03;;;;;;;1.90;71.21;98451.09;1696375;84;20954;-39
2022/11/17 05:35:31;;;;;;;14.58;10.63;;;;;;;1.83;71.57;98462.07;1791011;78;21586;-39
2022/11/17 05:37:58;;;;;;;16.55;11.53;;;;;;;1.83;71.45;98464.20;1809324;79;21451;-40
2022/11/17 05:40:25;;;;;;;15.80;11.80;;;;;;;1.91;71.79;98463.34;1804777;79;21212;-40
2022/11/17 05:42:52;;;;;;;17.12;12.55;;;;;;;1.99;71.86;98459.83;1803510;79;20942;-40
2022/11/17 05:45:19;;;;;;;16.55;12.88;;;;;;;2.03;71.63;98449.30;1803548;79;20959;-39
2022/11/17 05:47:46;;;;;;;16.10;12.18;;;;;;;2.02;71.57;98445.83;1803542;79;21136;-40
2022/11/17 05:50:14;;;;;;;17.90;11.95;;;;;;;2.01;71.68;98434.12;1803350;79;21509;-40
2022/11/17 05:52:40;;;;;;;15.93;12.18;;;;;;;2.00;71.24;98425.31;1801018;79;20983;-40
2022/11/17 05:55:07;;;;;;;16.85;12.58;;;;;;;2.05;71.18;98427.02;1791441;80;21074;-40
2022/11/17 05:57:34;;;;;;;16.93;12.30;;;;;;;2.07;71.26;98416.23;1791427;80;20969;-40
2022/11/17 06:00:03;;;;;;;17.50;12.75;;;;;;;2.07;71.37;98413.56;1791595;80;21193;-40
2022/11/17 06:02:39;;;;;;;18.60;13.25;;;;;;;2.06;71.37;98409.31;1790136;79;21067;-40
2022/11/17 06:05:07;;;;;;;17.57;12.95;;;;;;;2.04;71.14;98410.19;1791115;79;21135;-39
2022/11/17 06:07:35;;;;;;;17.12;12.88;;;;;;;2.02;71.26;98400.39;1791716;80;20971;-40
2022/11/17 06:10:03;;;;;;;16.55;11.80;;;;;;;2.03;71.23;98404.60;1791518;80;21035;-39
2022/11/17 06:12:30;;;;;;;17.10;12.33;;;;;;;2.09;70.92;98415.34;1791603;80;21090;-40
2022/11/17 06:14:56;;;;;;;17.95;12.68;;;;;;;2.09;70.77;98426.03;1791301;80;21468;-40
2022/11/17 06:17:33;;;;;;;17.62;12.30;;;;;;;2.08;70.92;98422.37;1791304;80;20924;-40
2022/11/17 06:20:09;;;;;;;18.55;13.13;;;;;;;2.09;70.94;98432.72;1791404;80;20936;-40
2022/11/17 06:22:36;;;;;;;18.40;12.50;;;;;;;2.12;70.87;98428.63;1790790;80;21549;-40
2022/11/17 06:25:04;;;;;;;16.15;12.58;;;;;;;2.13;70.57;98420.84;1791484;80;22032;-39
2022/11/17 06:27:31;;;;;;;19.57;12.93;;;;;;;2.12;70.49;98418.72;1791461;80;20951;-40
2022/11/17 06:30:02;;;;;;;18.10;12.03;;;;;;;2.10;70.50;98419.58;1791387;80;20924;-39
2022/11/17 06:32:29;;;;;;;18.00;11.40;;;;;;;2.09;70.40;98414.55;1791400;80;21000;-39
2022/11/17 06:34:56;;;;;;;14.40;11.78;;;;;;;2.08;70.16;98409.75;1791735;79;21035;-40
2022/11/17 06:37:23;;;;;;;17.90;12.47;;;;;;;2.04;70.29;98407.51;1794077;80;23125;-40
2022/11/17 06:39:50;;;;;;;15.85;12.00;;;;;;;2.04;70.52;98414.75;1794240;80;20992;-40
2022/11/17 14:32:39;;;;;;;13.60;9.43;;;;;;;1.50;74.18;98256.28;1805080;78;22039;-39
2022/11/17 14:35:13;;;;;;;14.60;10.68;;;;;;;1.58;73.16;98256.20;1789232;79;21044;-39
2022/11/17 14:37:41;;;;;;;18.00;11.95;;;;;;;1.53;72.78;98256.95;1798086;79;21118;-39
2022/11/17 14:40:14;;;;;;;17.50;12.37;;;;;;;1.50;72.69;98261.05;1797856;79;21524;-39
2022/11/17 14:42:41;;;;;;;16.87;11.50;;;;;;;1.55;72.77;98254.75;1797985;79;20881;-39
2022/11/17 14:45:14;;;;;;;21.42;12.55;;;;;;;1.57;72.53;98260.53;1798038;79;21635;-39
2022/11/17 14:47:41;;;;;;;18.57;14.03;;;;;;;1.63;72.16;98255.22;1798176;79;20987;-39
2022/11/17 14:50:13;;;;;;;15.40;11.12;;;;;;;1.71;71.65;98249.02;1797855;79;21316;-39
2022/11/17 14:52:41;;;;;;;17.42;12.05;;;;;;;1.74;70.90;98252.39;1767787;79;20924;-39
2022/11/17 14:55:11;;;;;;;14.35;9.63;;;;;;;1.67;70.65;98248.11;1798149;79;21677;-40
2022/11/17 14:57:40;;;;;;;13.05;9.70;;;;;;;1.58;69.99;98257.55;1797786;79;20990;-39
2022/11/17 15:00:08;;;;;;;15.38;11.03;;;;;;;1.50;70.10;98261.63;1798078;79;21564;-40
2022/11/17 15:02:35;;;;;;;19.00;13.72;;;;;;;1.49;70.33;98262.72;1797888;79;21190;-39
2022/11/17 15:05:02;;;;;;;15.03;10.98;;;;;;;1.44;70.57;98252.23;1797633;79;21068;-40
2022/11/17 15:07:29;;;;;;;22.60;14.93;;;;;;;1.40;70.58;98261.46;1797667;79;20943;-39
2022/11/17 15:09:56;;;;;;;15.60;11.05;;;;;;;1.39;70.81;98267.91;1797570;79;21012;-39
2022/11/17 15:12:23;;;;;;;12.50;10.20;;;;;;;1.44;70.99;98269.59;1797805;79;21469;-39
2022/11/17 15:14:50;;;;;;;15.03;10.23;;;;;;;1.51;70.78;98271.17;1797628;79;23112;-39
2022/11/17 15:17:17;;;;;;;12.33;9.35;;;;;;;1.54;70.38;98270.54;1797699;79;21021;-39
2022/11/17 15:19:44;;;;;;;13.22;9.78;;;;;;;1.53;70.19;98271.09;1797818;79;20963;-40
2022/11/17 15:22:11;;;;;;;13.62;9.73;;;;;;;1.48;70.04;98269.17;1797600;79;20959;-40
2022/11/17 15:24:38;;;;;;;14.55;10.58;;;;;;;1.47;70.21;98275.06;1797715;79;21066;-39
2022/11/17 15:27:04;;;;;;;15.10;9.88;;;;;;;1.47;70.20;98269.72;1797661;79;21229;-39
2022/11/17 15:29:31;;;;;;;14.23;10.70;;;;;;;1.46;70.07;98263.36;1797759;79;20996;-39
2022/11/17 15:31:58;;;;;;;17.10;9.73;;;;;;;1.46;69.92;98266.03;1793131;79;21069;-39
2022/11/17 15:34:24;;;;;;;14.85;9.73;;;;;;;1.46;69.94;98259.35;1790314;80;21025;-39
2022/11/17 15:36:51;;;;;;;14.58;10.05;;;;;;;1.46;69.89;98255.34;1790455;79;21038;-39
2022/11/17 15:39:19;;;;;;;17.57;9.55;;;;;;;1.46;69.57;98250.79;1790418;79;22141;-39
2022/11/17 15:41:49;;;;;;;9.57;7.30;;;;;;;1.42;69.35;98262.45;1790620;79;21460;-39
2022/11/17 15:44:17;;;;;;;11.85;8.73;;;;;;;1.37;69.02;98259.97;1789762;79;20923;-40
2022/11/17 15:46:44;;;;;;;12.35;9.38;;;;;;;1.33;69.33;98258.52;1789681;79;21033;-39
2022/11/17 15:49:11;;;;;;;12.73;9.33;;;;;;;1.33;69.08;98258.52;1789854;80;21022;-39
2022/11/17 15:51:38;;;;;;;14.40;9.53;;;;;;;1.30;69.37;98259.96;1789327;80;23071;-39
2022/11/17 15:54:07;;;;;;;12.90;9.48;;;;;;;1.23;69.15;98258.89;1789476;79;20955;-39
2022/11/17 15:56:37;;;;;;;13.45;8.95;;;;;;;1.17;69.10;98256.19;1789556;79;20927;-39
2022/11/17 15:59:05;;;;;;;13.70;9.83;;;;;;;1.12;69.41;98261.16;1789513;79;20990;-39
2022/11/17 16:01:35;;;;;;;12.35;8.93;;;;;;;1.15;69.73;98256.53;1789869;80;21501;-39
2022/11/17 16:04:09;;;;;;;12.90;9.25;;;;;;;1.23;69.80;98264.23;1789747;80;21390;-40
2022/11/17 16:06:39;;;;;;;11.90;9.20;;;;;;;1.25;69.35;98256.15;1789341;79;21485;-39
2022/11/17 16:09:08;;;;;;;11.88;8.60;;;;;;;1.22;69.24;98258.11;1789683;80;26659;-39
2022/11/17 16:11:36;;;;;;;14.13;9.30;;;;;;;1.22;69.16;98264.78;1789575;79;20951;-39
2022/11/17 16:14:04;;;;;;;12.47;8.43;;;;;;;1.17;69.26;98265.52;1789599;79;21047;-39
2022/11/17 16:16:33;;;;;;;14.43;8.90;;;;;;;1.19;68.99;98256.66;1789517;79;21230;-40
2022/11/17 16:19:00;;;;;;;11.35;9.00;;;;;;;1.17;69.06;98256.19;1789971;79;20880;-39
2022/11/17 16:21:27;;;;;;;12.58;8.83;;;;;;;1.09;69.11;98250.36;1789902;79;20919;-39
2022/11/17 16:23:55;;;;;;;13.80;9.20;;;;;;;1.09;69.22;98248.47;1789793;80;21457;-39
2022/11/17 16:26:24;;;;;;;12.43;9.10;;;;;;;1.10;69.10;98256.72;1790100;80;21069;-39
2022/11/17 16:28:59;;;;;;;12.98;9.43;;;;;;;1.10;68.79;98255.38;1789698;79;21117;-39
2022/11/17 16:31:29;;;;;;;12.80;9.50;;;;;;;1.09;69.04;98255.70;1789563;79;20987;-39
2022/11/17 16:34:01;;;;;;;13.70;9.53;;;;;;;1.09;69.24;98255.70;1789559;80;21240;-39
2022/11/17 16:36:31;;;;;;;15.25;9.83;;;;;;;1.06;69.34;98247.80;1789716;80;20931;-39
2022/11/17 16:38:58;;;;;;;10.68;8.00;;;;;;;1.11;69.59;98245.49;1789813;80;20987;-39
2022/11/17 16:41:29;;;;;;;13.55;10.15;;;;;;;1.11;69.33;98250.83;1789494;80;23111;-39
2022/11/17 16:43:56;;;;;;;13.22;9.73;;;;;;;1.16;69.61;98253.31;1789428;80;20959;-39
2022/11/17 16:46:27;;;;;;;14.13;10.23;;;;;;;1.19;69.43;98249.98;1789616;79;21002;-39
2022/11/17 16:48:55;;;;;;;14.45;10.55;;;;;;;1.14;68.91;98246.16;1789440;79;21009;-39
2022/11/17 16:51:22;;;;;;;13.98;9.95;;;;;;;1.13;69.04;98242.71;1789518;80;21033;-39
2022/11/17 16:53:57;;;;;;;14.73;10.13;;;;;;;1.13;69.26;98241.37;1789766;80;21100;-39
2022/11/17 16:56:25;;;;;;;14.10;10.03;;;;;;;1.20;69.32;98237.65;1789727;79;20963;-39
2022/11/17 16:58:53;;;;;;;16.65;9.63;;;;;;;1.15;69.13;98244.52;1789728;80;20958;-39
2022/11/17 17:01:23;;;;;;;16.48;10.00;;;;;;;1.16;69.04;98252.73;1789759;80;20946;-39
2022/11/17 17:04:01;;;;;;;;;;;;;;;1.12;68.63;98251.81;1792706;80;21014;-39
2022/11/17 17:06:30;;;;;;;;;;;;;;;1.13;68.85;98248.60;1792397;80;20102;-39
2022/11/17 17:09:02;;;;;;;17.73;10.05;;;;;;;1.07;69.12;98246.67;1789409;80;20118;-39
2022/11/17 17:11:30;;;;;;;16.35;10.08;;;;;;;1.01;69.62;98251.20;1789589;80;20946;-39
2022/11/17 17:14:02;;;;;;;13.48;9.45;;;;;;;1.12;69.74;98243.81;1789360;79;20891;-39
2022/11/17 17:16:31;;;;;;;13.68;10.23;;;;;;;1.20;69.22;98245.66;1789477;80;21030;-39
2022/11/17 17:19:03;;;;;;;14.47;10.20;;;;;;;1.23;69.13;98235.66;1789650;80;21087;-39
2022/11/17 17:21:30;;;;;;;14.05;9.78;;;;;;;1.30;69.09;98235.94;1789505;80;21499;-39
2022/11/17 17:23:57;;;;;;;13.85;9.78;;;;;;;1.34;69.05;98240.06;1789342;79;20946;-39
2022/11/17 17:26:26;;;;;;;14.93;11.05;;;;;;;1.36;69.10;98237.83;1789716;80;21781;-39
2022/11/17 17:28:55;;;;;;;15.43;9.98;;;;;;;1.42;68.92;98239.75;1789889;80;21042;-40
2022/11/17 17:31:23;;;;;;;10.45;7.58;;;;;;;1.47;69.04;98250.23;1789612;79;21894;-40
2022/11/17 17:33:50;;;;;;;15.10;9.93;;;;;;;1.51;68.79;98249.26;1789403;79;20986;-39
2022/11/17 17:36:19;;;;;;;15.88;10.88;;;;;;;1.52;68.95;98246.03;1789851;80;20947;-39
2022/11/17 17:38:46;;;;;;;16.15;11.05;;;;;;;1.57;68.98;98241.83;1789956;79;21010;-39
2022/11/17 17:41:15;;;;;;;14.75;10.53;;;;;;;1.61;68.64;98246.74;1789711;80;21457;-39
2022/11/17 17:43:45;;;;;;;16.97;11.08;;;;;;;1.61;68.56;98245.41;1789903;80;21806;-39
2022/11/17 17:46:14;;;;;;;14.18;10.65;;;;;;;1.58;68.19;98231.38;1789586;80;20946;-39
2022/11/17 17:48:43;;;;;;;11.53;7.92;;;;;;;1.52;68.25;98231.34;1789659;79;20955;-39
2022/11/17 17:51:15;;;;;;;16.90;10.08;;;;;;;1.51;68.38;98226.55;1789770;80;21059;-39
2022/11/17 17:53:42;;;;;;;14.83;10.82;;;;;;;1.46;68.15;98224.08;1789445;79;21034;-39
2022/11/17 17:56:13;;;;;;;15.65;10.45;;;;;;;1.42;68.60;98225.06;1789425;79;21066;-39
2022/11/17 17:58:40;;;;;;;14.65;10.50;;;;;;;1.46;68.34;98223.30;1789537;80;20943;-39
2022/11/17 18:01:10;;;;;;;18.05;10.82;;;;;;;1.45;68.29;98216.42;1789399;79;20993;-39
2022/11/17 18:03:37;;;;;;;14.90;10.15;;;;;;;1.44;68.00;98220.19;1789711;80;20958;-39
2022/11/17 18:06:05;;;;;;;15.72;9.43;;;;;;;1.38;68.26;98225.50;1789377;80;20963;-39
2022/11/17 18:08:34;;;;;;;13.35;9.53;;;;;;;1.35;68.34;98236.29;1789962;80;21178;-39
2022/11/17 18:11:06;;;;;;;14.33;9.73;;;;;;;1.34;68.32;98238.72;1789259;80;20958;-39
2022/11/17 18:13:35;;;;;;;14.38;9.78;;;;;;;1.33;68.44;98236.38;1789922;80;20975;-39
2022/11/17 18:16:05;;;;;;;15.43;9.65;;;;;;;1.35;68.25;98224.83;1789629;80;21009;-39
2022/11/17 18:18:33;;;;;;;13.45;9.73;;;;;;;1.35;68.04;98220.81;1789961;80;20998;-39
2022/11/17 22:56:46;;;;;;;10.88;6.33;;;;;;;0.84;71.98;98204.05;1829806;78;22724;-39
2022/11/17 22:59:15;;;;;;;9.93;6.55;;;;;;;1.00;71.01;98202.94;1792670;79;20947;-38
2022/11/17 23:01:42;;;;;;;8.68;5.97;;;;;;;1.03;70.63;98208.39;1784565;80;21106;-39
2022/11/17 23:04:10;;;;;;;11.43;6.80;;;;;;;1.09;70.08;98209.77;1784757;80;20994;-38
2022/11/17 23:06:37;;;;;;;9.23;6.45;;;;;;;1.10;69.43;98211.34;1765251;80;20975;-38
2022/11/17 23:09:04;;;;;;;9.13;6.55;;;;;;;1.12;69.26;98217.13;1784824;79;20922;-38
2022/11/17 23:11:31;;;;;;;11.30;6.42;;;;;;;1.15;68.83;98215.16;1784678;80;20935;-38
2022/11/17 23:13:58;;;;;;;11.57;6.92;;;;;;;1.14;68.59;98217.59;1784624;80;21211;-38
2022/11/17 23:16:25;;;;;;;9.93;7.08;;;;;;;1.16;68.45;98216.70;1784471;80;20998;-39
2022/11/17 23:18:54;;;;;;;11.57;6.95;;;;;;;1.20;68.21;98226.97;1784738;80;20916;-39
2022/11/17 23:21:21;;;;;;;11.00;7.20;;;;;;;1.22;68.08;98222.63;1784638;80;20975;-39
2022/11/17 23:23:48;;;;;;;14.47;7.20;;;;;;;1.27;67.55;98221.09;1784606;80;20951;-39
2022/11/17 23:26:14;;;;;;;13.40;7.25;;;;;;;1.20;67.24;98215.52;1784520;80;21134;-39
2022/11/17 23:28:42;;;;;;;8.85;6.58;;;;;;;1.14;67.16;98217.59;1784497;80;20924;-39
2022/11/17 23:31:13;;;;;;;10.40;6.53;;;;;;;1.12;67.00;98229.13;1784887;79;20970;-39
2022/11/17 23:33:46;;;;;;;8.55;6.53;;;;;;;1.14;66.97;98229.59;1784709;80;20992;-39
2022/11/17 23:36:18;;;;;;;9.55;6.67;;;;;;;1.15;66.98;98227.72;1784987;80;20991;-39
2022/11/17 23:38:46;;;;;;;10.98;6.45;;;;;;;1.17;66.96;98238.83;1784570;80;21198;-39
2022/11/17 23:41:15;;;;;;;9.05;6.12;;;;;;;1.18;66.82;98240.41;1784899;80;21002;-39
2022/11/17 23:43:42;;;;;;;9.60;6.47;;;;;;;1.18;66.88;98241.19;1784683;79;21247;-39
2022/11/17 23:46:12;;;;;;;9.45;6.10;;;;;;;1.18;66.77;98247.86;1784461;79;20966;-39
2022/11/17 23:48:39;;;;;;;7.83;6.03;;;;;;;1.23;66.85;98251.67;1784704;80;20994;-39
2022/11/17 23:51:08;;;;;;;9.60;6.22;;;;;;;1.21;66.57;98242.44;1784494;80;21115;-39
2022/11/17 23:53:35;;;;;;;10.68;6.25;;;;;;;1.20;66.57;98244.88;1784930;80;20880;-39
2022/11/17 23:56:03;;;;;;;7.42;6.25;;;;;;;1.19;66.51;98246.77;1781378;79;21005;-39
2022/11/17 23:58:31;;;;;;;9.68;6.45;;;;;;;1.20;66.32;98246.21;1779677;79;20967;-39
